createdAt,value
2022-09-02T00:04:29.906Z,3.05
2022-09-02T00:09:32.031Z,2.97
2022-09-02T00:14:37.609Z,3.85
2022-09-02T00:19:39.753Z,2.85
2022-09-02T00:24:41.849Z,2.85
2022-09-02T00:29:44.008Z,2.67
2022-09-02T00:34:46.137Z,2.67
2022-09-02T00:39:48.205Z,3.28
2022-09-02T00:44:50.586Z,3.33
2022-09-02T00:49:54.620Z,3.53
2022-09-02T00:55:02.361Z,2.97
2022-09-02T01:00:12.999Z,5.28
2022-09-02T01:05:17.545Z,4.83
2022-09-02T01:10:23.660Z,3.72
2022-09-02T01:15:27.280Z,5.63
2022-09-02T01:20:30.143Z,4.43
2022-09-02T01:25:34.586Z,3.58
2022-09-02T01:30:41.297Z,4.13
2022-09-02T01:35:43.535Z,3.25
2022-09-02T01:40:45.928Z,4.38
2022-09-02T01:45:51.952Z,4.68
2022-09-02T01:50:58.995Z,3.63
2022-09-02T01:56:01.140Z,5.18
2022-09-02T02:01:07.973Z,5.55
2022-09-02T02:06:14.468Z,5.63
2022-09-02T02:11:23.569Z,3.08
2022-09-02T02:16:29.291Z,4.07
2022-09-02T02:21:31.877Z,3.70
2022-09-02T02:26:35.217Z,4.53
2022-09-02T02:31:39.637Z,4.30
2022-09-02T02:36:43.227Z,3.28
2022-09-02T02:41:46.555Z,3.50
2022-09-02T02:46:50.049Z,4.50
2022-09-02T02:51:52.416Z,3.97
2022-09-02T02:56:54.579Z,7.22
2022-09-02T03:01:56.889Z,3.95
2022-09-02T03:06:59.415Z,5.22
2022-09-02T03:12:03.931Z,5.05
2022-09-02T03:17:07.420Z,5.47
2022-09-02T03:22:10.924Z,5.53
2022-09-02T03:27:13.966Z,5.10
2022-09-02T03:32:16.331Z,5.38
2022-09-02T03:37:20.817Z,5.30
2022-09-02T03:42:23.310Z,3.75
2022-09-02T03:47:30.850Z,3.80
2022-09-02T03:52:33.589Z,4.63
2022-09-02T03:57:37.000Z,4.78
2022-09-02T04:02:39.382Z,4.35
2022-09-02T04:07:41.751Z,5.80
2022-09-02T04:12:44.885Z,5.97
2022-09-02T04:17:47.088Z,6.13
2022-09-02T04:22:51.029Z,7.93
2022-09-02T04:27:54.261Z,9.02
2022-09-02T04:32:57.796Z,10.75
2022-09-02T04:38:00.427Z,9.45
2022-09-02T04:43:02.917Z,7.45
2022-09-02T04:48:07.139Z,9.43
2022-09-02T04:53:10.052Z,9.02
2022-09-02T04:58:12.348Z,11.35
2022-09-02T05:03:16.158Z,10.85
2022-09-02T05:08:23.684Z,10.35
2022-09-02T05:13:26.638Z,9.35
2022-09-02T05:18:30.159Z,10.30
2022-09-02T05:23:33.337Z,16.38
2022-09-02T05:28:37.637Z,11.20
2022-09-02T05:33:42.116Z,8.77
2022-09-02T05:38:45.735Z,12.60
2022-09-02T05:43:48.488Z,12.70
2022-09-02T05:49:07.506Z,13.82
2022-09-02T05:54:18.706Z,14.07
2022-09-02T05:59:23.768Z,12.43
2022-09-02T06:04:26.715Z,12.32
2022-09-02T06:09:29.197Z,12.88
2022-09-02T06:14:31.422Z,15.73
2022-09-02T06:19:35.963Z,12.38
2022-09-02T06:24:39.454Z,12.15
2022-09-02T06:29:46.396Z,12.63
2022-09-02T06:34:53.163Z,16.88
2022-09-02T06:39:57.237Z,16.77
2022-09-02T06:45:02.005Z,15.65
2022-09-02T06:50:04.460Z,14.98
2022-09-02T06:55:07.843Z,18.50
2022-09-02T07:00:10.790Z,15.43
2022-09-02T07:05:15.610Z,16.55
2022-09-02T07:10:21.020Z,14.75
2022-09-02T07:15:28.143Z,15.30
2022-09-02T07:20:32.769Z,16.40
2022-09-02T07:25:39.593Z,22.27
2022-09-02T07:30:44.390Z,17.15
2022-09-02T07:35:51.956Z,16.17
2022-09-02T07:40:56.945Z,16.38
2022-09-02T07:46:01.490Z,20.33
2022-09-02T07:51:05.673Z,13.63
2022-09-02T07:56:08.137Z,13.73
2022-09-02T08:01:12.845Z,19.05
2022-09-02T08:06:17.094Z,18.20
2022-09-02T08:11:23.937Z,17.13
2022-09-02T08:16:26.076Z,21.63
2022-09-02T08:21:28.166Z,18.17
2022-09-02T08:26:30.317Z,16.02
2022-09-02T08:31:33.327Z,18.80
2022-09-02T08:36:35.424Z,17.60
2022-09-02T08:41:47.976Z,18.38
2022-09-02T08:46:54.584Z,13.95
2022-09-02T08:51:58.219Z,15.30
2022-09-02T08:57:03.591Z,16.27
2022-09-02T09:02:26.586Z,17.25
2022-09-02T09:07:54.580Z,14.43
2022-09-02T09:13:26.401Z,17.65
2022-09-02T09:19:09.060Z,15.13
2022-09-02T09:24:36.815Z,14.45
2022-09-02T09:29:39.081Z,17.85
2022-09-02T09:34:57.300Z,16.25
2022-09-02T09:39:59.413Z,18.58
2022-09-02T09:45:18.816Z,15.98
2022-09-02T09:50:21.004Z,12.43
2022-09-02T09:55:25.537Z,19.05
2022-09-02T10:00:29.308Z,13.38
2022-09-02T10:05:34.833Z,15.23
2022-09-02T10:10:36.919Z,15.15
2022-09-02T10:16:05.223Z,10.30
2022-09-02T10:21:36.020Z,10.02
2022-09-02T10:26:44.408Z,15.10
2022-09-02T10:32:00.070Z,10.75
2022-09-02T10:37:17.573Z,12.70
2022-09-02T10:42:31.000Z,7.03
2022-09-02T10:47:38.427Z,9.27
2022-09-02T10:52:53.497Z,7.40
2022-09-02T10:58:03.695Z,8.43
2022-09-02T11:03:23.942Z,4.80
2022-09-02T11:08:40.980Z,5.35
2022-09-02T11:14:00.716Z,7.15
2022-09-02T11:19:10.262Z,4.60
2022-09-02T11:24:18.419Z,3.45
2022-09-02T11:29:28.226Z,3.25
2022-09-02T11:34:34.896Z,4.82
2022-09-02T11:39:56.281Z,2.58
2022-09-02T11:45:07.492Z,4.78
2022-09-02T11:50:39.608Z,2.60
2022-09-02T11:55:47.252Z,5.18
2022-09-02T12:00:55.822Z,3.53
2022-09-02T12:06:09.334Z,5.47
2022-09-02T12:11:42.109Z,3.38
2022-09-02T12:17:00.688Z,6.10
2022-09-02T12:22:14.973Z,3.50
2022-09-02T12:27:28.807Z,3.05
2022-09-02T12:32:46.166Z,4.93
2022-09-02T12:37:54.217Z,4.50
2022-09-02T12:43:00.924Z,5.00
2022-09-02T12:48:16.951Z,3.70
2022-09-02T12:53:34.705Z,4.65
2022-09-02T12:58:43.663Z,2.80
2022-09-02T13:03:57.724Z,2.63
2022-09-02T13:09:31.492Z,3.15
2022-09-02T13:14:42.432Z,3.08
2022-09-02T13:20:24.269Z,3.08
2022-09-02T13:25:48.597Z,4.20
2022-09-02T13:31:07.283Z,3.75
2022-09-02T13:36:09.788Z,2.88
2022-09-02T13:41:27.877Z,4.63
2022-09-02T13:46:30.009Z,3.42
2022-09-02T13:51:33.919Z,2.67
2022-09-02T13:56:36.137Z,3.25
2022-09-02T14:01:40.015Z,2.60
2022-09-02T14:06:46.232Z,2.60
2022-09-02T14:11:50.162Z,2.85
2022-09-02T14:16:52.804Z,3.05
2022-09-02T14:21:57.569Z,2.50
2022-09-02T14:27:00.289Z,3.42
2022-09-02T14:32:03.909Z,6.45
2022-09-02T14:37:26.165Z,3.47
2022-09-02T14:42:29.436Z,4.40
2022-09-02T14:47:37.847Z,3.55
2022-09-02T14:52:46.464Z,2.97
2022-09-02T14:57:48.769Z,4.97
2022-09-02T15:02:57.244Z,4.40
2022-09-02T15:07:59.231Z,2.53
2022-09-02T15:13:01.346Z,2.90
2022-09-02T15:18:05.380Z,3.05
2022-09-02T15:23:11.130Z,3.28
2022-09-02T15:28:13.603Z,4.05
2022-09-02T15:33:17.447Z,3.30
2022-09-02T15:38:19.688Z,3.33
2022-09-02T15:43:23.146Z,5.40
2022-09-02T15:48:25.218Z,3.00
2022-09-02T15:53:27.241Z,4.63
2022-09-02T15:58:29.219Z,4.97
2022-09-02T16:03:31.241Z,5.13
2022-09-02T16:08:36.997Z,3.35
2022-09-02T16:13:39.143Z,4.07
2022-09-02T16:18:42.185Z,3.88
2022-09-02T16:23:44.495Z,4.43
2022-09-02T16:28:47.086Z,8.57
2022-09-02T16:33:58.072Z,4.82
2022-09-02T16:39:01.576Z,4.15
2022-09-02T16:44:08.666Z,5.05
2022-09-02T16:49:13.172Z,4.22
2022-09-02T16:54:17.765Z,5.90
2022-09-02T16:59:23.399Z,3.65
2022-09-02T17:04:25.392Z,4.70
2022-09-02T17:09:27.413Z,4.85
2022-09-02T17:14:29.529Z,3.50
2022-09-02T17:19:33.987Z,4.55
2022-09-02T17:24:36.054Z,3.58
2022-09-02T17:29:55.231Z,5.97
2022-09-02T17:34:57.370Z,5.53
2022-09-02T17:39:59.613Z,3.63
2022-09-02T17:45:01.702Z,4.70
2022-09-02T17:50:05.441Z,4.80
2022-09-02T17:55:07.822Z,5.28
2022-09-02T18:00:18.992Z,5.32
2022-09-02T18:05:50.074Z,3.50
2022-09-02T18:10:57.732Z,3.90
2022-09-02T18:16:23.188Z,3.83
2022-09-02T18:21:53.269Z,4.60
2022-09-02T18:26:55.331Z,8.45
2022-09-02T18:32:40.404Z,3.15
2022-09-02T18:38:07.685Z,3.58
2022-09-02T18:43:20.490Z,4.50
2022-09-02T18:48:27.778Z,3.25
2022-09-02T18:53:39.924Z,3.22
2022-09-02T18:58:58.748Z,3.90
2022-09-02T19:04:01.928Z,3.50
2022-09-02T19:09:14.171Z,3.30
2022-09-02T19:14:28.296Z,3.78
2022-09-02T19:19:30.350Z,6.55
2022-09-02T19:24:39.358Z,3.83
2022-09-02T19:29:46.129Z,3.30
2022-09-02T19:34:48.177Z,3.55
2022-09-02T19:39:51.274Z,6.40
2022-09-02T19:44:53.929Z,3.22
2022-09-02T19:49:55.934Z,3.83
2022-09-02T19:54:58.115Z,3.50
2022-09-02T20:00:02.127Z,7.53
2022-09-02T20:05:08.561Z,4.43
2022-09-02T20:10:10.740Z,5.40
2022-09-02T20:15:12.988Z,4.13
2022-09-02T20:20:22.435Z,4.80
2022-09-02T20:25:33.000Z,3.53
2022-09-02T20:30:38.070Z,4.32
2022-09-02T20:36:04.192Z,4.10
2022-09-02T20:41:28.247Z,6.15
2022-09-02T20:47:02.121Z,5.10
2022-09-02T20:52:12.181Z,5.00
2022-09-02T20:57:49.464Z,6.32
2022-09-02T21:02:57.812Z,4.82
2022-09-02T21:08:07.225Z,4.43
2022-09-02T21:13:21.526Z,4.18
2022-09-02T21:18:35.526Z,4.03
2022-09-02T21:23:42.791Z,3.47
2022-09-02T21:29:14.338Z,4.28
2022-09-02T21:34:27.185Z,3.95
2022-09-02T21:39:34.714Z,5.55
2022-09-02T21:45:03.332Z,5.32
2022-09-02T21:50:22.059Z,4.45
2022-09-02T21:55:52.319Z,3.58
2022-09-02T22:01:02.120Z,4.55
2022-09-02T22:06:09.069Z,4.75
2022-09-02T22:11:39.257Z,6.55
2022-09-02T22:16:59.348Z,3.28
2022-09-02T22:22:14.832Z,4.32
2022-09-02T22:27:43.259Z,4.18
2022-09-02T22:33:07.176Z,5.10
2022-09-02T22:38:30.465Z,5.10
2022-09-02T22:43:49.669Z,4.68
2022-09-02T22:49:16.820Z,6.13
2022-09-02T22:54:19.181Z,4.63
2022-09-02T22:59:24.684Z,5.00
2022-09-02T23:04:35.719Z,7.95
2022-09-02T23:09:38.644Z,6.00
2022-09-02T23:15:08.788Z,6.28
2022-09-02T23:20:39.504Z,7.13
2022-09-02T23:25:50.892Z,5.63
2022-09-02T23:31:04.422Z,8.50
2022-09-02T23:36:36.012Z,8.73
2022-09-02T23:41:38.819Z,9.27
2022-09-02T23:46:50.673Z,6.53
2022-09-02T23:52:14.249Z,7.78
2022-09-02T23:57:36.574Z,9.75
